createdAt,value
2018-04-22T00:02:07.803Z,12.70
2018-04-22T00:04:35.327Z,12.70
2018-04-22T00:07:02.819Z,12.60
2018-04-22T00:09:30.324Z,12.60
2018-04-22T00:11:58.572Z,12.50
2018-04-22T00:14:26.085Z,12.50
2018-04-22T00:16:53.567Z,12.50
2018-04-22T00:19:21.075Z,12.40
2018-04-22T00:21:48.559Z,12.40
2018-04-22T00:24:16.092Z,12.30
2018-04-22T00:26:43.576Z,12.30
2018-04-22T00:29:11.056Z,12.30
2018-04-22T00:31:39.348Z,12.20
2018-04-22T00:34:06.860Z,12.10
2018-04-22T00:36:34.378Z,12.20
2018-04-22T00:39:02.627Z,12.10
2018-04-22T00:41:30.148Z,12.10
2018-04-22T00:43:57.633Z,12.10
2018-04-22T00:46:25.190Z,12.00
2018-04-22T00:48:52.670Z,12.00
2018-04-22T00:51:20.172Z,11.90
2018-04-22T00:53:59.644Z,11.90
2018-04-22T00:56:27.150Z,11.90
2018-04-22T00:58:55.391Z,11.80
2018-04-22T01:01:22.923Z,11.80
2018-04-22T01:03:50.420Z,11.70
2018-04-22T01:06:17.904Z,11.70
2018-04-22T01:08:46.179Z,11.70
2018-04-22T01:11:14.423Z,11.60
2018-04-22T01:13:41.928Z,11.60
2018-04-22T01:16:09.410Z,11.60
2018-04-22T01:18:36.910Z,11.60
2018-04-22T01:21:04.394Z,11.50
2018-04-22T01:23:31.907Z,11.50
2018-04-22T01:25:59.385Z,11.50
2018-04-22T01:28:26.885Z,11.50
2018-04-22T01:30:54.361Z,11.40
2018-04-22T01:33:21.884Z,11.40
2018-04-22T01:35:50.114Z,11.30
2018-04-22T01:38:17.640Z,11.30
2018-04-22T01:40:45.122Z,11.30
2018-04-22T01:43:12.616Z,11.20
2018-04-22T01:45:40.130Z,11.20
2018-04-22T01:48:07.621Z,11.10
2018-04-22T01:50:35.131Z,11.10
2018-04-22T01:53:02.624Z,11.10
2018-04-22T01:55:30.170Z,11.10
2018-04-22T01:57:57.652Z,11.00
2018-04-22T02:00:25.153Z,11.00
2018-04-22T02:02:52.631Z,11.00
2018-04-22T02:05:20.138Z,10.90
2018-04-22T02:07:47.626Z,11.00
2018-04-22T02:10:15.143Z,11.00
2018-04-22T02:12:42.625Z,11.00
2018-04-22T02:15:10.915Z,10.90
2018-04-22T02:17:38.399Z,10.80
2018-04-22T02:20:05.901Z,10.80
2018-04-22T02:22:33.397Z,10.80
2018-04-22T02:25:00.903Z,10.80
2018-04-22T02:27:28.420Z,10.80
2018-04-22T02:29:55.937Z,10.80
2018-04-22T02:32:23.408Z,10.70
2018-04-22T02:34:51.661Z,10.70
2018-04-22T02:37:19.170Z,10.70
2018-04-22T02:39:46.645Z,10.60
2018-04-22T02:42:14.143Z,10.60
2018-04-22T02:44:42.698Z,10.50
2018-04-22T02:47:10.198Z,10.50
2018-04-22T02:49:38.441Z,10.50
2018-04-22T02:52:05.945Z,10.40
2018-04-22T02:54:33.431Z,10.50
2018-04-22T02:57:00.943Z,10.40
2018-04-22T02:59:29.185Z,10.40
2018-04-22T03:01:56.686Z,10.30
2018-04-22T03:04:24.161Z,10.30
2018-04-22T03:06:51.679Z,10.30
2018-04-22T03:09:19.932Z,10.20
2018-04-22T03:11:47.459Z,10.20
2018-04-22T03:14:14.926Z,10.20
2018-04-22T03:16:42.449Z,10.20
2018-04-22T03:19:10.684Z,10.10
2018-04-22T03:21:38.426Z,10.10
2018-04-22T03:24:05.932Z,10.10
2018-04-22T03:26:34.170Z,10.10
2018-04-22T03:29:01.684Z,10.00
2018-04-22T03:31:29.979Z,10.00
2018-04-22T03:33:57.478Z,10.00
2018-04-22T03:36:24.957Z,10.00
2018-04-22T03:38:53.235Z,9.90
2018-04-22T03:41:21.484Z,9.90
2018-04-22T03:43:48.974Z,9.90
2018-04-22T03:46:17.218Z,9.90
2018-04-22T03:48:44.724Z,9.90
2018-04-22T03:51:12.205Z,9.80
2018-04-22T03:53:39.713Z,9.90
2018-04-22T03:56:07.946Z,9.80
2018-04-22T03:58:35.454Z,9.80
2018-04-22T04:01:03.729Z,9.80
2018-04-22T04:03:32.016Z,9.80
2018-04-22T04:06:00.254Z,9.80
2018-04-22T04:08:27.780Z,9.70
2018-04-22T04:10:55.255Z,9.70
2018-04-22T04:13:22.739Z,9.70
2018-04-22T04:15:50.674Z,9.60
2018-04-22T04:21:39.885Z,9.60
2018-04-22T04:24:28.168Z,9.50
2018-04-22T04:27:18.983Z,9.50
2018-04-22T04:29:46.499Z,9.50
2018-04-22T04:32:13.971Z,9.60
2018-04-22T04:34:42.211Z,9.60
2018-04-22T04:37:09.720Z,9.60
2018-04-22T04:39:37.209Z,9.60
2018-04-22T04:42:04.723Z,9.60
2018-04-22T04:44:32.971Z,9.60
2018-04-22T04:47:00.468Z,9.50
2018-04-22T04:49:28.698Z,9.60
2018-04-22T04:51:56.233Z,9.60
2018-04-22T04:54:23.767Z,9.70
2018-04-22T04:56:51.220Z,9.70
2018-04-22T04:59:18.683Z,9.70
2018-04-22T05:01:46.197Z,9.80
2018-04-22T05:04:13.662Z,9.80
2018-04-22T05:06:41.148Z,9.80
2018-04-22T05:09:09.427Z,9.90
2018-04-22T05:11:37.655Z,9.90
2018-04-22T05:14:05.154Z,9.90
2018-04-22T05:16:33.401Z,10.10
2018-04-22T05:19:00.916Z,10.10
2018-04-22T05:21:28.404Z,10.20
2018-04-22T05:23:55.913Z,10.30
2018-04-22T05:26:23.380Z,10.40
2018-04-22T05:28:50.882Z,10.40
2018-04-22T05:31:18.374Z,10.50
2018-04-22T05:33:46.642Z,10.70
2018-04-22T05:36:14.883Z,10.80
2018-04-22T05:38:42.378Z,10.80
2018-04-22T05:41:10.631Z,11.10
2018-04-22T05:43:38.161Z,11.00
2018-04-22T05:46:05.647Z,11.10
2018-04-22T05:48:33.128Z,11.30
2018-04-22T05:51:01.416Z,11.50
2018-04-22T05:53:29.672Z,11.60
2018-04-22T05:55:57.192Z,11.50
2018-04-22T05:58:24.875Z,11.70
2018-04-22T06:00:52.370Z,11.70
2018-04-22T06:03:20.629Z,11.90
2018-04-22T06:05:48.138Z,11.90
2018-04-22T06:08:15.616Z,12.00
2018-04-22T06:10:43.128Z,12.20
2018-04-22T06:13:11.359Z,12.40
2018-04-22T06:15:38.891Z,12.40
2018-04-22T06:18:06.366Z,12.60
2018-04-22T06:20:33.897Z,12.70
2018-04-22T06:23:01.396Z,12.90
2018-04-22T06:25:28.885Z,13.00
2018-04-22T06:27:57.149Z,13.20
2018-04-22T06:30:25.392Z,13.40
2018-04-22T06:32:53.655Z,13.50
2018-04-22T06:35:21.126Z,13.50
2018-04-22T06:37:48.627Z,13.60
2018-04-22T06:40:16.934Z,14.00
2018-04-22T06:42:44.414Z,14.00
2018-04-22T06:45:11.894Z,14.30
2018-04-22T06:47:39.402Z,14.40
2018-04-22T06:50:06.887Z,14.70
2018-04-22T06:52:34.404Z,14.90
2018-04-22T06:55:01.877Z,15.10
2018-04-22T06:57:29.377Z,15.40
2018-04-22T06:59:56.859Z,15.50
2018-04-22T07:02:25.159Z,16.00
2018-04-22T07:04:52.664Z,16.00
2018-04-22T07:07:20.147Z,16.30
2018-04-22T07:09:48.420Z,16.80
2018-04-22T07:12:15.909Z,16.80
2018-04-22T07:14:43.458Z,17.10
2018-04-22T07:17:11.728Z,17.70
2018-04-22T07:19:40.021Z,18.00
2018-04-22T07:22:07.515Z,18.00
2018-04-22T07:24:35.022Z,18.30
2018-04-22T07:27:03.273Z,18.90
2018-04-22T07:29:30.786Z,18.90
2018-04-22T07:31:58.256Z,19.30
2018-04-22T07:34:25.797Z,19.90
2018-04-22T07:36:53.280Z,20.60
2018-04-22T07:39:20.814Z,21.20
2018-04-22T07:41:48.291Z,21.90
2018-04-22T07:44:15.813Z,22.60
2018-04-22T07:46:43.289Z,23.20
2018-04-22T07:49:10.759Z,23.70
2018-04-22T07:51:38.257Z,24.00
2018-04-22T07:54:05.747Z,24.60
2018-04-22T07:56:33.250Z,24.90
2018-04-22T07:59:00.718Z,25.00
2018-04-22T08:01:28.222Z,25.10
2018-04-22T08:03:55.713Z,25.60
2018-04-22T08:06:23.225Z,26.00
2018-04-22T08:08:51.470Z,26.20
2018-04-22T08:11:18.973Z,26.20
2018-04-22T08:13:46.456Z,26.30
2018-04-22T08:16:14.020Z,26.50
2018-04-22T08:18:42.245Z,27.20
2018-04-22T08:21:10.542Z,27.60
2018-04-22T08:23:38.049Z,27.60
2018-04-22T08:26:05.584Z,27.90
2018-04-22T08:28:33.068Z,28.00
2018-04-22T08:31:00.548Z,27.90
2018-04-22T08:33:28.823Z,27.20
2018-04-22T08:35:57.059Z,27.20
2018-04-22T08:38:24.560Z,27.20
2018-04-22T08:40:52.829Z,27.70
2018-04-22T08:43:21.094Z,27.90
2018-04-22T08:45:48.587Z,27.80
2018-04-22T08:48:16.101Z,28.20
2018-04-22T08:50:43.611Z,28.80
2018-04-22T08:53:11.144Z,29.30
2018-04-22T08:55:39.639Z,29.50
2018-04-22T08:58:07.922Z,29.80
2018-04-22T09:00:35.495Z,29.80
2018-04-22T09:03:03.021Z,30.40
2018-04-22T09:05:31.248Z,32.10
2018-04-22T09:07:58.772Z,32.00
2018-04-22T09:10:26.250Z,32.30
2018-04-22T09:12:53.846Z,32.60
2018-04-22T09:15:21.371Z,32.60
2018-04-22T09:17:48.923Z,32.60
2018-04-22T09:20:16.453Z,33.10
2018-04-22T09:22:44.719Z,34.40
2018-04-22T09:25:12.988Z,33.80
2018-04-22T09:27:40.477Z,33.70
2018-04-22T09:30:08.016Z,33.30
2018-04-22T09:32:36.258Z,33.20
2018-04-22T09:35:03.918Z,33.20
2018-04-22T09:37:31.428Z,33.80
2018-04-22T09:39:58.948Z,34.40
2018-04-22T09:42:26.406Z,34.50
2018-04-22T09:44:54.085Z,34.50
2018-04-22T09:47:21.738Z,34.60
2018-04-22T09:49:49.272Z,34.80
2018-04-22T09:52:16.738Z,34.80
2018-04-22T09:54:44.228Z,34.30
2018-04-22T09:57:12.512Z,33.90
2018-04-22T09:59:40.774Z,34.50
2018-04-22T10:02:25.930Z,34.80
2018-04-22T10:04:53.460Z,34.80
2018-04-22T10:07:21.003Z,35.10
2018-04-22T10:09:48.468Z,36.20
2018-04-22T10:12:16.007Z,36.80
2018-04-22T10:14:43.496Z,37.00
2018-04-22T10:17:11.084Z,36.60
2018-04-22T10:19:39.403Z,35.80
2018-04-22T10:22:06.925Z,34.80
2018-04-22T10:24:34.404Z,34.20
2018-04-22T10:27:02.684Z,34.10
2018-04-22T10:29:30.156Z,34.10
2018-04-22T10:31:57.667Z,34.50
2018-04-22T10:34:25.176Z,35.00
2018-04-22T10:36:52.685Z,35.50
2018-04-22T10:39:20.193Z,35.00
2018-04-22T10:41:47.669Z,34.50
2018-04-22T10:44:15.162Z,33.70
2018-04-22T10:46:42.680Z,33.60
2018-04-22T10:49:10.161Z,33.70
2018-04-22T10:51:37.688Z,33.50
2018-04-22T10:54:05.243Z,33.00
2018-04-22T10:56:32.742Z,32.90
2018-04-22T10:59:00.256Z,32.40
2018-04-22T11:01:27.731Z,32.30
2018-04-22T11:03:55.245Z,32.90
2018-04-22T11:06:23.504Z,32.60
2018-04-22T11:08:51.029Z,32.60
2018-04-22T11:11:18.537Z,32.90
2018-04-22T11:13:46.806Z,32.40
2018-04-22T11:16:15.077Z,32.90
2018-04-22T11:18:42.541Z,32.90
2018-04-22T11:21:10.857Z,33.50
2018-04-22T11:23:38.330Z,33.50
2018-04-22T11:26:05.845Z,33.60
2018-04-22T11:28:33.354Z,33.90
2018-04-22T11:31:00.871Z,34.00
2018-04-22T11:33:28.382Z,34.10
2018-04-22T11:35:55.891Z,34.20
2018-04-22T11:38:23.389Z,34.90
2018-04-22T11:40:50.886Z,35.30
2018-04-22T11:43:19.131Z,35.50
2018-04-22T11:45:47.366Z,35.40
2018-04-22T11:48:14.929Z,35.80
2018-04-22T11:50:42.483Z,36.20
2018-04-22T11:53:09.977Z,36.90
2018-04-22T11:55:37.479Z,36.40
2018-04-22T11:58:05.720Z,35.00
2018-04-22T12:00:33.247Z,35.00
2018-04-22T12:03:00.721Z,35.20
2018-04-22T12:05:28.962Z,35.60
2018-04-22T12:07:56.489Z,35.60
2018-04-22T12:10:24.743Z,36.40
2018-04-22T12:12:52.254Z,36.30
2018-04-22T12:15:19.742Z,35.70
2018-04-22T12:17:47.260Z,35.80
2018-04-22T12:20:15.514Z,35.60
2018-04-22T12:22:43.776Z,35.60
2018-04-22T12:25:11.254Z,35.90
2018-04-22T12:27:39.544Z,36.10
2018-04-22T12:30:07.792Z,36.30
2018-04-22T12:32:35.326Z,36.20
2018-04-22T12:35:02.813Z,36.40
2018-04-22T12:37:30.337Z,36.40
2018-04-22T12:39:57.848Z,36.40
2018-04-22T12:42:26.141Z,37.10
2018-04-22T12:44:53.620Z,37.10
2018-04-22T12:47:21.122Z,36.60
2018-04-22T12:49:48.886Z,36.20
2018-04-22T12:52:16.421Z,36.00
2018-04-22T12:54:43.906Z,36.20
2018-04-22T12:57:12.156Z,36.60
2018-04-22T12:59:39.655Z,36.60
2018-04-22T13:02:07.898Z,36.10
2018-04-22T13:04:35.429Z,36.10
2018-04-22T13:07:02.905Z,35.90
2018-04-22T13:09:30.423Z,35.90
2018-04-22T13:11:57.906Z,35.50
2018-04-22T13:14:25.418Z,35.10
2018-04-22T13:16:53.654Z,34.20
2018-04-22T13:19:21.162Z,34.20
2018-04-22T13:21:48.638Z,33.80
2018-04-22T13:24:16.138Z,33.50
2018-04-22T13:26:43.645Z,33.40
2018-04-22T13:29:11.168Z,33.50
2018-04-22T13:31:38.880Z,34.10
2018-04-22T13:34:07.104Z,34.70
2018-04-22T13:36:34.595Z,34.80
2018-04-22T13:39:02.148Z,35.20
2018-04-22T13:41:30.376Z,36.80
2018-04-22T13:43:57.886Z,36.80
2018-04-22T13:46:25.431Z,36.10
2018-04-22T13:48:52.966Z,35.00
2018-04-22T13:51:20.437Z,34.60
2018-04-22T13:53:48.706Z,34.10
2018-04-22T13:56:16.234Z,34.10
2018-04-22T13:58:43.719Z,34.00
2018-04-22T14:01:11.265Z,33.40
2018-04-22T14:03:38.756Z,33.00
2018-04-22T14:06:07.055Z,33.00
2018-04-22T14:08:34.576Z,33.00
2018-04-22T14:11:02.083Z,32.80
2018-04-22T14:13:30.343Z,32.60
2018-04-22T14:15:57.881Z,32.60
2018-04-22T14:18:26.111Z,32.10
2018-04-22T14:20:53.703Z,32.00
2018-04-22T14:23:21.189Z,32.20
2018-04-22T14:25:48.698Z,32.10
2018-04-22T14:28:16.180Z,32.10
2018-04-22T14:30:44.464Z,31.70
2018-04-22T14:33:12.747Z,31.40
2018-04-22T14:35:40.288Z,31.40
2018-04-22T14:38:08.553Z,31.50
2018-04-22T14:40:36.832Z,31.50
2018-04-22T14:43:04.338Z,31.20
2018-04-22T14:45:43.634Z,30.90
2018-04-22T14:48:11.142Z,30.80
2018-04-22T14:50:38.691Z,30.80
2018-04-22T14:53:06.184Z,30.70
2018-04-22T14:55:33.689Z,30.40
2018-04-22T14:58:01.188Z,30.30
2018-04-22T15:00:28.695Z,30.50
2018-04-22T15:02:56.963Z,30.20
2018-04-22T15:05:25.215Z,30.00
2018-04-22T15:07:52.724Z,30.00
2018-04-22T15:10:20.285Z,30.20
2018-04-22T15:12:49.034Z,30.20
2018-04-22T15:15:19.481Z,30.40
2018-04-22T15:17:46.978Z,30.30
2018-04-22T15:20:14.455Z,30.30
2018-04-22T15:22:41.991Z,30.10
2018-04-22T15:25:09.571Z,29.90
2018-04-22T15:27:37.055Z,29.80
2018-04-22T15:30:05.364Z,29.40
2018-04-22T15:32:32.906Z,29.40
2018-04-22T15:35:01.174Z,29.10
2018-04-22T15:37:29.519Z,29.10
2018-04-22T15:39:57.028Z,29.10
2018-04-22T15:42:25.728Z,29.00
2018-04-22T15:44:53.236Z,28.90
2018-04-22T15:47:21.724Z,28.70
2018-04-22T15:49:49.663Z,28.40
2018-04-22T15:52:17.275Z,28.30
2018-04-22T15:54:44.803Z,28.30
2018-04-22T15:57:12.834Z,28.20
2018-04-22T15:59:41.191Z,28.00
2018-04-22T16:02:09.441Z,27.80
2018-04-22T16:04:36.929Z,27.70
2018-04-22T16:07:04.457Z,27.60
2018-04-22T16:09:32.500Z,27.60
2018-04-22T16:12:00.287Z,27.60
2018-04-22T16:14:28.637Z,27.40
2018-04-22T16:16:56.101Z,27.40
2018-04-22T16:19:23.587Z,27.40
2018-04-22T16:21:51.108Z,27.30
2018-04-22T16:24:18.584Z,27.30
2018-04-22T16:26:46.110Z,27.20
2018-04-22T16:29:13.611Z,27.20
2018-04-22T16:31:41.127Z,27.20
2018-04-22T16:34:10.215Z,27.00
2018-04-22T16:36:37.774Z,27.00
2018-04-22T16:39:07.137Z,27.10
2018-04-22T16:41:34.669Z,27.00
2018-04-22T16:44:02.197Z,26.90
2018-04-22T16:46:29.696Z,26.90
2018-04-22T16:48:57.218Z,26.90
2018-04-22T16:51:24.738Z,26.90
2018-04-22T16:53:53.015Z,26.80
2018-04-22T16:56:21.306Z,26.60
2018-04-22T16:58:48.818Z,26.60
2018-04-22T17:01:16.374Z,26.60
2018-04-22T17:03:43.877Z,26.60
2018-04-22T17:06:12.162Z,26.40
2018-04-22T17:08:39.692Z,26.40
2018-04-22T17:11:07.178Z,26.40
2018-04-22T17:13:34.682Z,26.30
2018-04-22T17:16:02.176Z,26.20
2018-04-22T17:18:30.419Z,26.00
2018-04-22T17:20:57.934Z,26.00
2018-04-22T17:23:25.456Z,25.90
2018-04-22T17:25:52.968Z,25.80
2018-04-22T17:28:20.449Z,25.70
2018-04-22T17:30:47.975Z,25.60
2018-04-22T17:33:15.463Z,25.60
2018-04-22T17:35:42.974Z,25.50
2018-04-22T17:38:10.501Z,25.30
2018-04-22T17:40:38.796Z,25.10
2018-04-22T17:43:07.040Z,24.90
2018-04-22T17:45:34.605Z,24.80
2018-04-22T17:48:02.094Z,24.80
2018-04-22T17:50:30.439Z,24.60
2018-04-22T17:52:57.967Z,24.60
2018-04-22T17:55:26.173Z,24.40
2018-04-22T17:57:53.672Z,24.40
2018-04-22T18:00:21.151Z,24.30
2018-04-22T18:02:48.932Z,24.20
2018-04-22T18:05:16.436Z,24.00
2018-04-22T18:07:44.735Z,23.80
2018-04-22T18:10:12.207Z,23.80
2018-04-22T18:12:39.715Z,23.70
2018-04-22T18:15:07.210Z,23.60
2018-04-22T18:17:34.748Z,23.50
2018-04-22T18:20:02.972Z,23.30
2018-04-22T18:22:30.493Z,23.20
2018-04-22T18:24:58.619Z,23.20
2018-04-22T18:27:26.133Z,23.10
2018-04-22T18:29:53.638Z,23.00
2018-04-22T18:32:21.131Z,22.80
2018-04-22T18:34:49.463Z,22.60
2018-04-22T18:37:16.974Z,22.60
2018-04-22T18:39:45.245Z,22.40
2018-04-22T18:42:12.757Z,22.40
2018-04-22T18:44:40.265Z,22.30
2018-04-22T18:47:07.750Z,22.20
2018-04-22T18:49:35.270Z,22.10
2018-04-22T18:52:03.516Z,21.80
2018-04-22T18:54:31.075Z,21.80
2018-04-22T18:56:58.570Z,21.70
2018-04-22T18:59:26.843Z,21.60
2018-04-22T19:01:55.103Z,21.50
2018-04-22T19:04:22.619Z,21.50
2018-04-22T19:06:50.106Z,21.40
2018-04-22T19:09:17.597Z,21.30
2018-04-22T19:11:45.837Z,21.10
2018-04-22T19:14:13.325Z,21.10
2018-04-22T19:16:41.562Z,20.90
2018-04-22T19:19:09.046Z,20.90
2018-04-22T19:21:36.523Z,20.80
2018-04-22T19:24:04.801Z,20.50
2018-04-22T19:26:33.049Z,20.50
2018-04-22T19:29:00.529Z,20.40
2018-04-22T19:31:28.799Z,20.30
2018-04-22T19:33:57.056Z,20.20
2018-04-22T19:36:24.569Z,20.20
2018-04-22T19:38:52.092Z,20.20
2018-04-22T19:41:20.368Z,20.00
2018-04-22T19:43:48.652Z,19.90
2018-04-22T19:46:16.164Z,19.80
2018-04-22T19:48:43.638Z,19.70
2018-04-22T19:51:11.154Z,19.50
2018-04-22T19:53:38.679Z,19.40
2018-04-22T19:56:06.964Z,19.10
2018-04-22T19:58:34.434Z,19.10
2018-04-22T20:01:01.928Z,19.00
2018-04-22T20:03:29.398Z,18.90
2018-04-22T20:05:56.872Z,18.80
2018-04-22T20:08:25.118Z,18.60
2018-04-22T20:10:52.635Z,18.50
2018-04-22T20:13:20.122Z,18.50
2018-04-22T20:15:47.631Z,18.40
2018-04-22T20:18:15.914Z,18.20
2018-04-22T20:20:44.166Z,18.10
2018-04-22T20:23:11.646Z,18.10
2018-04-22T20:25:39.936Z,17.90
2018-04-22T20:28:07.415Z,17.90
2018-04-22T20:30:34.897Z,17.80
2018-04-22T20:33:02.425Z,17.70
2018-04-22T20:35:29.929Z,17.70
2018-04-22T20:37:57.441Z,17.60
2018-04-22T20:40:24.942Z,17.50
2018-04-22T20:42:52.414Z,17.50
2018-04-22T20:45:20.067Z,17.40
2018-04-22T20:47:47.521Z,17.40
2018-04-22T20:50:15.039Z,17.30
2018-04-22T20:52:42.520Z,17.30
2018-04-22T20:55:10.002Z,17.30
2018-04-22T20:57:37.483Z,17.20
2018-04-22T21:00:04.983Z,17.20
2018-04-22T21:02:32.506Z,17.10
2018-04-22T21:04:59.982Z,17.00
2018-04-22T21:07:27.475Z,16.90
2018-04-22T21:09:54.998Z,16.90
2018-04-22T21:12:22.480Z,16.80
2018-04-22T21:14:49.988Z,16.70
2018-04-22T21:17:18.345Z,16.50
2018-04-22T21:19:45.857Z,16.50
2018-04-22T21:22:13.390Z,16.50
2018-04-22T21:24:40.865Z,16.40
2018-04-22T21:27:08.378Z,16.30
2018-04-22T21:29:35.898Z,16.20
2018-04-22T21:32:03.409Z,16.10
2018-04-22T21:34:31.640Z,16.00
2018-04-22T21:36:59.148Z,15.90
2018-04-22T21:39:27.398Z,15.80
2018-04-22T21:41:54.907Z,15.80
2018-04-22T21:44:23.149Z,15.70
2018-04-22T21:46:51.417Z,15.60
2018-04-22T21:49:18.902Z,15.60
2018-04-22T21:51:46.420Z,15.50
2018-04-22T21:54:13.916Z,15.50
2018-04-22T21:56:41.387Z,15.40
2018-04-22T21:59:08.916Z,15.40
2018-04-22T22:01:37.171Z,15.30
2018-04-22T22:04:04.687Z,15.20
2018-04-22T22:06:32.158Z,15.20
2018-04-22T22:08:59.672Z,15.10
2018-04-22T22:11:27.902Z,15.00
2018-04-22T22:13:55.400Z,15.00
2018-04-22T22:16:23.649Z,15.00
2018-04-22T22:18:51.164Z,14.90
2018-04-22T22:21:18.628Z,14.90
2018-04-22T22:23:46.136Z,14.90
2018-04-22T22:26:13.649Z,14.90
2018-04-22T22:28:41.160Z,14.90
2018-04-22T22:31:09.429Z,14.90
2018-04-22T22:33:36.902Z,14.90
2018-04-22T22:36:05.197Z,14.90
2018-04-22T22:38:32.670Z,14.90
2018-04-22T22:41:00.203Z,14.90
2018-04-22T22:43:27.681Z,14.90
2018-04-22T22:45:55.184Z,14.80
2018-04-22T22:48:22.650Z,14.80
2018-04-22T22:50:50.156Z,14.80
2018-04-22T22:53:17.622Z,14.80
2018-04-22T22:55:45.126Z,14.80
2018-04-22T22:58:12.597Z,14.70
2018-04-22T23:00:40.878Z,14.70
2018-04-22T23:03:09.139Z,14.60
2018-04-22T23:05:37.382Z,14.60
2018-04-22T23:08:04.877Z,14.60
2018-04-22T23:10:33.123Z,14.60
2018-04-22T23:13:00.630Z,14.50
2018-04-22T23:15:28.119Z,14.50
2018-04-22T23:17:55.617Z,14.50
2018-04-22T23:20:23.862Z,14.50
2018-04-22T23:22:51.368Z,14.50
2018-04-22T23:25:19.606Z,14.50
2018-04-22T23:27:47.109Z,14.50
2018-04-22T23:30:14.594Z,14.50
2018-04-22T23:32:42.121Z,14.50
2018-04-22T23:35:10.357Z,14.40
2018-04-22T23:37:37.824Z,14.30
2018-04-22T23:40:05.385Z,14.40
2018-04-22T23:42:32.818Z,14.40
2018-04-22T23:45:01.100Z,14.40
2018-04-22T23:47:28.569Z,14.30
2018-04-22T23:49:56.104Z,14.30
2018-04-22T23:52:23.573Z,14.40
2018-04-22T23:54:51.100Z,14.40
2018-04-22T23:57:18.580Z,14.40
2018-04-22T23:59:46.098Z,14.40
